METAR Data
IDs: Format: Raw Decoded Include TAF

Data at: 2036 UTC 19 May 2019

KOOA 192015Z AUTO 29017G23KT 7SM SCT013 OVC020 14/12 A2976 RMK AO2 T01400116
KOOA 191955Z AUTO 29022KT 4SM -DZ SCT013 BKN018 OVC033 14/12 A2975 RMK AO2 T01430121
KOOA 191935Z AUTO 29015KT 10SM SCT023 OVC035 15/12 A2974 RMK AO2 T01520120
KOOA 191915Z AUTO 27015G21KT 10SM BKN025 OVC035 16/12 A2973 RMK AO2 T01580117
KOOA 191855Z AUTO 27018KT 10SM BKN023 OVC030 16/12 A2972 RMK AO2 T01610119
KOOA 191835Z AUTO 27017G20KT 10SM SCT017 BKN031 OVC036 17/12 A2971 RMK AO2 T01660123
KOOA 191815Z AUTO 28015KT 10SM SCT024 SCT031 OVC038 17/13 A2970 RMK AO2 T01710134
KOOA 191755Z AUTO 28018KT 10SM SCT018 OVC024 16/13 A2970 RMK AO2 T01590125 10179 20148
KOOA 191735Z AUTO 28018G23KT 10SM SCT016 BKN022 OVC027 17/14 A2969 RMK AO2 T01670135
KOOA 191715Z AUTO 28018G24KT 10SM SCT016 BKN030 OVC049 17/14 A2968 RMK AO2 T01710138
KOOA 191655Z AUTO 27021G25KT 10SM SCT015 BKN026 OVC047 17/14 A2967 RMK AO2 T01740142
KOOA 191635Z AUTO 27017G22KT 10SM SCT015 BKN021 OVC042 17/14 A2966 RMK AO2 T01710141
KOOA 191615Z AUTO 27015KT 10SM SCT018 BKN036 OVC085 18/14 A2965 RMK AO2 T01770139
KOOA 191555Z AUTO 27011KT 10SM SCT016 OVC070 17/14 A2964 RMK AO2 T01690136
KOOA 191535Z AUTO 28013KT 10SM SCT015 SCT024 OVC070 16/13 A2963 RMK AO2 T01620133
KOOA 191515Z AUTO 28012KT 10SM SCT017 BKN024 OVC055 16/13 A2963 RMK AO2 T01610131
KOOA 191455Z AUTO 30016KT 10SM SCT014 BKN022 OVC050 17/13 A2963 RMK AO2 T01650130
KOOA 191435Z AUTO 30016KT 10SM BKN015 OVC020 16/13 A2962 RMK AO2 T01580131
KOOA 191415Z AUTO 30015KT 10SM SCT010 OVC017 16/14 A2961 RMK AO2 T01620135
KOOA 191355Z AUTO 30011KT 10SM SCT011 OVC017 16/14 A2959 RMK AO2 T01550135
KOOA 191335Z AUTO 29007KT 10SM -RA SCT012 OVC017 15/13 A2958 RMK AO2 T01500132
KOOA 191315Z AUTO 27009KT 10SM -RA OVC013 15/13 A2958 RMK AO2 T01480131
KOOA 191255Z AUTO 26010KT 10SM SCT011 OVC018 15/13 A2959 RMK AO2 T01500132
KOOA 191235Z AUTO 27013KT 10SM SCT018 SCT050 BKN085 16/13 A2957 RMK AO2 T01550134
KOOA 191215Z AUTO 28010KT 10SM SCT095 SCT120 15/13 A2956 RMK AO2 T01510133
KOOA 191155Z AUTO 29007KT 10SM SCT055 OVC095 15/14 A2956 RMK AO2 60001 70139 T01500137 10171 20149
KOOA 191135Z AUTO 28009KT 10SM BKN055 OVC085 15/14 A2955 RMK AO2 T01500137
KOOA 191115Z AUTO 29011KT 10SM SCT048 BKN055 BKN095 15/14 A2954 RMK AO2 T01490137
KOOA 191055Z AUTO 26009KT 10SM SCT031 BKN047 OVC055 15/14 A2955 RMK AO2 T01510140
KOOA 191035Z AUTO 25007KT 10SM BKN024 BKN032 OVC039 15/14 A2956 RMK AO2 T01520140
KOOA 191015Z AUTO 25005KT 10SM BKN008 OVC024 15/14 A2956 RMK AO2 T01520140
KOOA 190955Z AUTO 26007KT 10SM OVC008 15/14 A2956 RMK AO2 T01530141
KOOA 190935Z AUTO 25007KT 10SM BKN008 OVC024 15/14 A2957 RMK AO2 T01520141
KOOA 190915Z AUTO 24008KT 10SM SCT004 BKN024 OVC049 15/14 A2956 RMK AO2 T01540143
KOOA 190855Z AUTO 29010KT 10SM SCT022 SCT030 OVC049 15/15 A2954 RMK AO2 P0001 60001 T01530145
KOOA 190835Z AUTO 28008KT 4SM -RA SCT014 BKN021 OVC030 16/15 A2955 RMK AO2 P0001 T01550145
KOOA 190815Z AUTO 30010KT 5SM -RA SCT009 BKN015 OVC021 16/15 A2954 RMK AO2 P0001 T01550145
KOOA 190755Z AUTO 31008KT 250V320 10SM SCT007 BKN011 OVC017 17/16 A2954 RMK AO2 T01700155
KOOA 190735Z AUTO 22010KT 7SM BKN009 OVC014 17/16 A2954 RMK AO2 T01670157
KOOA 190715Z AUTO 22009KT 7SM -RA OVC012 17/16 A2954 RMK AO2 T01700156
KOOA 190655Z AUTO 22011KT 10SM OVC014 17/16 A2954 RMK AO2 T01700156
KOOA 190635Z AUTO 22012KT 10SM OVC014 17/16 A2955 RMK AO2 T01700156
KOOA 190615Z AUTO 22012KT 10SM BKN012 OVC017 17/16 A2956 RMK AO2 T01710157
KOOA 190555Z AUTO 22012KT 10SM OVC012 17/16 A2956 RMK AO2 60015 T01710157 10179 20171 402710148
KOOA 190535Z AUTO 21015KT 10SM BKN009 OVC013 17/16 A2955 RMK AO2 T01710158
KOOA 190515Z AUTO 22017G22KT 10SM BKN009 OVC013 17/16 A2956 RMK AO2 T01740160
KOOA 190455Z AUTO 20018G22KT 10SM OVC009 18/16 A2956 RMK AO2 T01760162
KOOA 190435Z AUTO 19007KT 10SM OVC009 18/17 A2956 RMK AO2 T01750165
KOOA 190415Z AUTO 17005KT 10SM OVC009 17/17 A2955 RMK AO2 T01730165
KOOA 190355Z AUTO 15003KT 10SM OVC009 17/16 A2953 RMK AO2 T01720162
KOOA 190335Z AUTO 09003KT 10SM BKN007 BKN024 17/16 A2953 RMK AO2 T01730163
KOOA 190315Z AUTO 00000KT 10SM OVC007 18/16 A2955 RMK AO2 T01750164
KOOA 190255Z AUTO 00000KT 10SM BKN007 BKN026 OVC100 18/17 A2956 RMK AO2 60015 T01750165
KOOA 190235Z AUTO 08005KT 10SM OVC100 18/17 A2956 RMK AO2 T01750165
KOOA 190215Z AUTO 08014G20KT 10SM -RA BKN110 18/17 A2953 RMK AO2 T01750165
KOOA 190155Z AUTO 07016KT 10SM -RA SCT003 SCT070 OVC100 18/17 A2954 RMK AO2 P0004 T01750165
KOOA 190135Z AUTO 08013KT 7SM -RA SCT003 SCT028 OVC110 18/17 A2957 RMK AO2 P0004 T01760168
KOOA 190115Z AUTO 07012KT 7SM RA SCT029 BKN040 OVC060 18/17 A2959 RMK AO2 P0003 T01750166
KOOA 190055Z AUTO 08011KT 4SM RA SCT033 BKN041 OVC060 18/17 A2961 RMK AO2 P0010 T01770168
KOOA 190035Z AUTO 03006KT 5SM RA SCT005 BKN032 OVC060 18/17 A2961 RMK AO2 P0005 T01770167
KOOA 190015Z AUTO 31004KT 7SM RA SCT007 BKN070 OVC080 18/17 A2962 RMK AO2 P0001 T01780168
KOOA 182355Z AUTO 33012KT 5SM -RA SCT005 BKN026 OVC080 18/17 A2961 RMK AO2 P0039 60118 T01760166 10271 20176
KOOA 182335Z AUTO 31014G22KT 1SM +RA BKN005 OVC009 18/17 A2962 RMK AO2 P0035 T01760166
KOOA 182315Z AUTO 32014G20KT 5SM RA SCT005 BKN022 OVC032 19/18 A2960 RMK AO2 P0004 T01850175
KOOA 182255Z AUTO 35006KT 4SM RA SCT008 BKN018 OVC049 19/17 A2961 RMK AO2 P0079 T01850170
KOOA 182235Z AUTO 22014G18KT 1 3/4SM +RA SCT004 BKN010 OVC017 19/18 A2965 RMK AO2 P0053 T01920180
KOOA 182215Z AUTO 19008KT 1SM +RA BKN004 BKN009 OVC024 20/18 A2961 RMK AO2 P0028 T01970180
KOOA 182155Z AUTO 19012KT 10SM RA OVC042 22/19 A2962 RMK AO2 T02190190
KOOA 182135Z AUTO 18014KT 10SM -RA SCT031 BKN041 OVC085 23/19 A2960 RMK AO2 T02250187
KOOA 182115Z AUTO 17015KT 10SM BKN034 BKN070 OVC085 23/19 A2961 RMK AO2 T02340189
KOOA 182055Z AUTO 18012KT 10SM SCT036 OVC070 25/18 A2963 RMK AO2 T02490183
KOOA 182035Z AUTO 19012KT 10SM SCT035 BKN070 26/18 A2962 RMK AO2 T02600183
KOOA 182015Z AUTO 19009KT 10SM CLR 27/19 A2961 RMK AO2 T02670189
KOOA 181955Z AUTO 18014G18KT 10SM CLR 27/19 A2962 RMK AO2 T02670186
KOOA 181935Z AUTO 19015KT 10SM CLR 26/19 A2962 RMK AO2 T02610189
KOOA 181915Z AUTO 19011KT 10SM CLR 25/19 A2962 RMK AO2 T02520187
KOOA 181855Z AUTO 19013KT 10SM CLR 25/19 A2962 RMK AO2 T02500186
KOOA 181835Z AUTO 19015G20KT 10SM SCT018 25/19 A2962 RMK AO2 T02450189
KOOA 181815Z AUTO 17017G21KT 10SM SCT018 24/19 A2962 RMK AO2 T02390191
KOOA 181755Z AUTO 17020G24KT 10SM CLR 24/19 A2963 RMK AO2 60005 T02350187 10239 20173
KOOA 181735Z AUTO 17018KT 10SM CLR 24/19 A2962 RMK AO2 T02390188
KOOA 181715Z AUTO 18017G20KT 10SM CLR 24/19 A2963 RMK AO2 T02360188
KOOA 181655Z AUTO 18017G21KT 10SM CLR 22/19 A2964 RMK AO2 T02240186
KOOA 181635Z AUTO 17018KT 10SM CLR 22/19 A2965 RMK AO2 T02220189
KOOA 181615Z AUTO 15013KT 10SM CLR 22/18 A2962 RMK AO2 T02150184
KOOA 181555Z AUTO 17014KT 10SM CLR 21/18 A2962 RMK AO2 T02100180
KOOA 181535Z AUTO 17013KT 10SM CLR 21/18 A2964 RMK AO2 T02060177
KOOA 181515Z AUTO 17012KT 10SM CLR 20/18 A2964 RMK AO2 T02030177
KOOA 181455Z AUTO 20010KT 10SM CLR 19/17 A2968 RMK AO2 P0001 60005 T01890170
KOOA 181435Z AUTO 21010KT 10SM SCT120 18/17 A2971 RMK AO2 P0001 T01830166
KOOA 181415Z AUTO 21010KT 10SM -RA SCT040 SCT065 OVC120 18/16 A2971 RMK AO2 P0001 T01770162
KOOA 181355Z AUTO 22009KT 7SM RA SCT038 SCT050 BKN110 18/16 A2972 RMK AO2 P0002 T01750160
KOOA 181335Z AUTO 22010KT 10SM -RA SCT032 SCT041 BKN120 18/16 A2971 RMK AO2 P0001 T01750160
KOOA 181315Z AUTO 22008KT 5SM RA BKN030 BKN041 OVC075 18/16 A2971 RMK AO2 P0001 T01750156
KOOA 181255Z AUTO 23016G22KT 5SM +RA SCT022 BKN050 OVC085 18/16 A2972 RMK AO2 P0001 T01810155
KOOA 181235Z AUTO 22012KT 10SM -RA BKN037 BKN046 OVC050 19/15 A2970 RMK AO2 T01920150
KOOA 181215Z AUTO 18009KT 10SM BKN037 BKN050 OVC100 19/16 A2968 RMK AO2 T01900155
KOOA 181155Z AUTO 16008KT 10SM SCT050 OVC100 18/15 A2967 RMK AO2 70023 T01820150 10182 20148
KOOA 181135Z AUTO 14008KT 10SM BKN050 BKN080 OVC100 17/15 A2967 RMK AO2 T01710147
KOOA 181115Z AUTO 14009KT 7SM BKN050 BKN065 OVC090 16/15 A2968 RMK AO2 T01640145
KOOA 181055Z AUTO 13010KT 7SM SCT050 BKN065 BKN090 16/14 A2968 RMK AO2 T01600143
KOOA 181035Z AUTO 12009KT 7SM SCT050 SCT065 SCT090 16/14 A2969 RMK AO2 T01550140
KOOA 181015Z AUTO 13010KT 7SM SCT070 SCT080 16/14 A2970 RMK AO2 T01560140
KOOA 180955Z AUTO 13011KT 5SM BR CLR 15/14 A2970 RMK AO2 T01540140
KOOA 180935Z AUTO 12008KT 5SM BR CLR 15/14 A2971 RMK AO2 T01530140
KOOA 180915Z AUTO 11010KT 4SM BR CLR 15/14 A2971 RMK AO2 T01500138
KOOA 180855Z AUTO 11010KT 3SM BR CLR 15/14 A2972 RMK AO2 T01490137